Time;durP1;ratioP1;P1;durP2;ratioP2;P2;SDS_P1;SDS_P2;PMS_P1;PMS_P2;Temp;Humidity;BMP_temperature;BMP_pressure;BME280_temperature;BME280_humidity;BME280_pressure;Samples;Min_cycle;Max_cycle;Signal;HPM_P1;HPM_P2
2023/08/06 00:00:26;;;;;;;9.27;4.22;;;;;;;15.62;100.00;100244.38;5311729;28;20067;-65
2023/08/06 00:02:58;;;;;;;5.95;4.10;;;;;;;15.61;100.00;100244.56;5318138;28;20478;-65
2023/08/06 00:05:29;;;;;;;7.20;3.83;;;;;;;15.57;100.00;100237.81;5314807;28;20034;-65
2023/08/06 00:08:00;;;;;;;6.32;4.22;;;;;;;15.61;100.00;100242.72;5318612;28;20027;-65
2023/08/06 00:10:32;;;;;;;5.25;3.75;;;;;;;15.58;100.00;100242.22;5319152;27;20101;-65
2023/08/06 00:13:03;;;;;;;7.20;3.90;;;;;;;15.61;100.00;100245.41;5322221;28;20080;-65
2023/08/06 00:15:34;;;;;;;6.43;3.85;;;;;;;15.49;100.00;100236.81;5320799;28;20514;-65
2023/08/06 00:18:06;;;;;;;7.60;3.83;;;;;;;15.46;100.00;100247.06;5317926;28;20031;-65
2023/08/06 00:20:41;;;;;;;6.03;3.75;;;;;;;15.48;100.00;100245.03;5314252;28;20545;-65
2023/08/06 00:23:12;;;;;;;7.90;3.92;;;;;;;15.52;100.00;100234.81;5320382;28;20039;-65
2023/08/06 00:25:44;;;;;;;7.53;3.97;;;;;;;15.49;100.00;100233.28;5321242;28;20023;-65
2023/08/06 00:28:15;;;;;;;6.43;3.85;;;;;;;15.53;100.00;100233.78;5315409;28;20024;-65
2023/08/06 00:30:51;;;;;;;6.25;3.63;;;;;;;15.45;100.00;100231.91;5316700;28;20436;-65
2023/08/06 00:33:23;;;;;;;6.10;3.90;;;;;;;15.55;100.00;100235.31;5308528;28;20027;-66
2023/08/06 00:35:55;;;;;;;6.75;3.60;;;;;;;15.51;100.00;100233.13;5320104;28;20024;-65
2023/08/06 00:38:26;;;;;;;6.80;3.53;;;;;;;15.62;100.00;100232.81;5316722;28;20125;-65
2023/08/06 00:40:57;;;;;;;9.05;3.67;;;;;;;15.56;100.00;100225.41;5316243;28;20335;-65
2023/08/06 00:43:29;;;;;;;6.60;3.90;;;;;;;15.57;100.00;100232.44;5313703;28;20024;-65
2023/08/06 00:46:01;;;;;;;10.40;3.78;;;;;;;15.54;100.00;100230.94;5316050;28;20423;-65
2023/08/06 00:48:33;;;;;;;7.25;3.90;;;;;;;15.55;100.00;100232.63;5317585;28;20050;-65
2023/08/06 00:51:05;;;;;;;4.97;3.30;;;;;;;15.60;100.00;100224.06;5316387;28;20058;-65
2023/08/06 00:53:38;;;;;;;6.03;3.50;;;;;;;15.55;100.00;100224.56;5306210;28;20114;-65
2023/08/06 00:56:09;;;;;;;8.95;3.38;;;;;;;15.48;100.00;100227.06;5309728;28;20024;-65
2023/08/06 00:58:41;;;;;;;7.00;3.67;;;;;;;15.56;100.00;100218.16;5311222;28;20082;-65
2023/08/06 01:01:12;;;;;;;6.55;3.60;;;;;;;15.54;100.00;100222.88;5318831;28;20012;-65
2023/08/06 01:03:44;;;;;;;6.10;3.40;;;;;;;15.54;100.00;100222.88;5314994;28;20424;-65
2023/08/06 01:06:23;;;;;;;6.15;3.80;;;;;;;15.65;100.00;100219.88;5320923;27;20023;-65
2023/08/06 01:09:10;;;;;;;5.03;3.58;;;;;;;15.61;100.00;100220.34;5313588;28;20461;-65
2023/08/06 01:11:49;;;;;;;5.57;3.45;;;;;;;15.57;100.00;100222.56;5313962;28;20027;-65
2023/08/06 01:14:33;;;;;;;6.40;3.55;;;;;;;15.61;100.00;100226.59;5318228;28;20536;-65
2023/08/06 01:17:05;;;;;;;7.40;3.92;;;;;;;15.48;100.00;100218.16;5310299;28;20514;-65
2023/08/06 01:19:36;;;;;;;7.57;3.90;;;;;;;15.51;100.00;100217.81;5312241;28;20123;-65
2023/08/06 01:22:08;;;;;;;7.25;4.00;;;;;;;15.55;100.00;100219.19;5316065;28;20034;-65
2023/08/06 01:24:44;;;;;;;6.30;3.58;;;;;;;15.41;100.00;100217.13;5315925;28;20032;-66
2023/08/06 01:27:25;;;;;;;7.93;3.70;;;;;;;15.43;100.00;100228.56;5317137;28;20560;-65
2023/08/06 01:30:03;;;;;;;7.00;3.65;;;;;;;15.52;100.00;100229.44;5312295;28;20024;-65
2023/08/06 01:32:37;;;;;;;7.45;3.88;;;;;;;15.46;100.00;100220.19;5302233;28;20020;-65
2023/08/06 01:35:11;;;;;;;7.57;3.67;;;;;;;15.52;100.00;100216.00;5317888;28;20024;-65
2023/08/06 01:37:43;;;;;;;6.72;3.67;;;;;;;15.53;100.00;100217.66;5313543;28;20053;-65
2023/08/06 01:40:14;;;;;;;8.23;3.83;;;;;;;15.64;100.00;100217.34;5313587;28;20032;-65
2023/08/06 01:42:46;;;;;;;5.82;3.60;;;;;;;15.47;100.00;100217.31;5311196;28;20031;-65
2023/08/06 01:45:17;;;;;;;7.82;3.63;;;;;;;15.58;100.00;100218.00;5314661;28;20016;-65
2023/08/06 01:47:48;;;;;;;6.55;4.00;;;;;;;15.53;100.00;100209.59;5316747;28;20442;-65
2023/08/06 01:50:20;;;;;;;6.18;3.83;;;;;;;15.45;100.00;100205.03;5312107;28;20073;-65
2023/08/06 01:52:51;;;;;;;6.10;3.92;;;;;;;15.64;100.00;100203.91;5312815;28;20027;-65
2023/08/06 01:55:22;;;;;;;5.57;3.42;;;;;;;15.54;100.00;100208.59;5314690;28;20031;-65
2023/08/06 01:57:53;;;;;;;5.53;3.80;;;;;;;15.64;100.00;100202.03;5312509;28;20039;-65
2023/08/06 02:00:25;;;;;;;7.30;3.88;;;;;;;15.37;100.00;100205.03;5316539;27;20064;-65
2023/08/06 02:02:56;;;;;;;7.03;3.58;;;;;;;15.38;100.00;100212.94;5316131;27;20114;-66
2023/08/06 02:05:27;;;;;;;6.57;3.63;;;;;;;15.44;100.00;100211.44;5307715;28;20035;-66
2023/08/06 02:07:59;;;;;;;5.18;3.53;;;;;;;15.53;100.00;100206.91;5309117;28;20027;-65
2023/08/06 02:10:30;;;;;;;6.72;4.00;;;;;;;15.42;100.00;100211.59;5311875;28;20485;-65
2023/08/06 02:13:01;;;;;;;7.38;3.60;;;;;;;15.50;100.00;100213.47;5311097;28;20024;-65
2023/08/06 02:15:33;;;;;;;6.28;3.50;;;;;;;15.60;100.00;100216.00;5311452;28;20114;-65
2023/08/06 02:18:04;;;;;;;6.05;3.25;;;;;;;15.52;100.00;100219.50;5312936;28;20031;-65
2023/08/06 02:20:35;;;;;;;5.38;3.28;;;;;;;15.52;100.00;100216.81;5319285;27;20039;-65
2023/08/06 02:23:07;;;;;;;6.03;3.58;;;;;;;15.51;100.00;100216.97;5314443;28;20023;-65
2023/08/06 02:25:38;;;;;;;6.18;3.65;;;;;;;15.62;100.00;100213.97;5315538;28;20047;-65
2023/08/06 02:28:10;;;;;;;5.65;3.80;;;;;;;15.54;100.00;100219.34;5306204;27;20031;-65
2023/08/06 02:30:50;;;;;;;7.40;4.10;;;;;;;15.56;100.00;100214.66;5312096;28;20074;-65
2023/08/06 02:33:21;;;;;;;6.25;3.75;;;;;;;15.56;100.00;100211.97;5314566;28;20389;-65
2023/08/06 02:36:00;;;;;;;6.10;3.67;;;;;;;15.68;100.00;100213.31;5313665;28;20039;-65
2023/08/06 02:38:32;;;;;;;6.35;3.90;;;;;;;15.68;100.00;100210.63;5309248;28;20650;-65
2023/08/06 02:41:04;;;;;;;8.05;3.95;;;;;;;15.68;100.00;100210.63;5315314;28;20034;-65
2023/08/06 02:43:35;;;;;;;6.05;3.75;;;;;;;15.61;100.00;100217.66;5312403;28;20024;-65
2023/08/06 02:46:07;;;;;;;6.93;4.30;;;;;;;15.61;100.00;100217.66;5312118;28;20028;-65
2023/08/06 02:48:38;;;;;;;8.05;4.07;;;;;;;15.61;100.00;100213.16;5315148;27;20138;-65
2023/08/06 02:51:09;;;;;;;7.13;3.90;;;;;;;15.62;100.00;100217.50;5314567;28;20031;-65
2023/08/06 02:53:41;;;;;;;6.50;3.80;;;;;;;15.79;100.00;100210.31;5314962;28;20480;-65
2023/08/06 02:56:12;;;;;;;6.93;3.88;;;;;;;15.83;100.00;100208.97;5312864;28;20058;-65
2023/08/06 02:58:43;;;;;;;8.75;3.75;;;;;;;15.92;100.00;100198.25;5316855;28;20031;-65
2023/08/06 03:01:15;;;;;;;7.40;3.63;;;;;;;15.65;100.00;100201.03;5315154;28;20026;-65
2023/08/06 03:03:46;;;;;;;6.63;3.67;;;;;;;15.94;100.00;100204.28;5311717;28;20453;-65
2023/08/06 03:06:17;;;;;;;5.75;3.40;;;;;;;15.97;100.00;100201.25;5309506;28;20023;-66
2023/08/06 03:08:49;;;;;;;6.75;3.47;;;;;;;15.97;100.00;100201.25;5309445;28;20051;-65
2023/08/06 03:11:21;;;;;;;5.68;3.22;;;;;;;15.92;100.00;100198.25;5307334;28;20028;-65
2023/08/06 03:13:52;;;;;;;6.80;3.55;;;;;;;15.94;100.00;100197.06;5311710;28;20115;-67
2023/08/06 03:16:23;;;;;;;6.80;3.15;;;;;;;15.89;100.00;100202.09;5303730;28;20070;-65
2023/08/06 03:18:54;;;;;;;5.63;3.40;;;;;;;15.95;100.00;100197.88;5316516;28;20028;-66
2023/08/06 03:21:26;;;;;;;6.60;3.42;;;;;;;15.94;100.00;100201.59;5315444;28;20052;-65
2023/08/06 03:23:57;;;;;;;6.40;3.50;;;;;;;15.85;100.00;100206.97;5318960;28;20032;-65
2023/08/06 03:26:29;;;;;;;5.90;3.30;;;;;;;15.89;100.00;100207.47;5317829;28;20085;-65
2023/08/06 03:29:00;;;;;;;6.03;3.30;;;;;;;15.87;100.00;100207.63;5308835;27;20091;-65
2023/08/06 03:31:31;;;;;;;5.55;3.72;;;;;;;15.87;100.00;100204.13;5321633;27;20039;-65
2023/08/06 03:34:02;;;;;;;7.43;3.70;;;;;;;15.91;100.00;100208.16;5320347;28;20070;-66
2023/08/06 03:36:34;;;;;;;6.65;4.22;;;;;;;15.79;100.00;100204.94;5316109;28;20558;-65
2023/08/06 03:39:05;;;;;;;11.18;4.10;;;;;;;15.78;100.00;100207.81;5316584;28;20028;-65
2023/08/06 03:41:36;;;;;;;9.13;4.07;;;;;;;15.72;100.00;100203.06;5307109;28;20040;-65
2023/08/06 03:44:08;;;;;;;7.10;3.95;;;;;;;15.75;100.00;100208.16;5310674;28;20039;-65
2023/08/06 03:46:39;;;;;;;6.38;3.40;;;;;;;15.91;100.00;100212.69;5319191;28;20464;-65
2023/08/06 03:49:10;;;;;;;6.00;3.60;;;;;;;15.56;100.00;100206.59;5322419;28;20055;-65
2023/08/06 03:51:41;;;;;;;7.38;3.72;;;;;;;15.56;100.00;100215.47;5317916;27;20031;-65
2023/08/06 03:54:13;;;;;;;6.45;3.92;;;;;;;15.83;100.00;100208.97;5318928;28;20035;-65
2023/08/06 03:56:44;;;;;;;8.27;3.53;;;;;;;15.89;100.00;100207.47;5325108;27;20514;-65
2023/08/06 03:59:15;;;;;;;5.57;3.40;;;;;;;15.98;100.00;100217.22;5314158;28;20080;-65
2023/08/06 04:01:47;;;;;;;7.03;3.97;;;;;;;15.78;100.00;100216.72;5319150;28;20031;-65
2023/08/06 04:04:18;;;;;;;5.50;3.53;;;;;;;15.73;100.00;100216.38;5318882;28;20030;-65
2023/08/06 04:06:49;;;;;;;6.57;3.63;;;;;;;15.73;100.00;100211.00;5309202;28;20032;-65
2023/08/06 04:09:20;;;;;;;8.27;3.75;;;;;;;15.69;100.00;100210.47;5315860;27;20051;-65
2023/08/06 04:11:52;;;;;;;6.38;3.40;;;;;;;15.65;100.00;100210.97;5319844;28;20031;-65
2023/08/06 04:14:23;;;;;;;6.55;3.53;;;;;;;15.59;100.00;100222.38;5316218;28;20073;-65
2023/08/06 04:16:55;;;;;;;7.25;3.92;;;;;;;15.65;100.00;100219.03;5314962;28;20390;-65
2023/08/06 04:19:26;;;;;;;8.30;4.05;;;;;;;15.67;100.00;100230.47;5317442;28;20122;-65
2023/08/06 04:21:57;;;;;;;8.43;4.72;;;;;;;15.85;100.00;100225.78;5319408;28;20515;-65
2023/08/06 04:24:29;;;;;;;9.60;5.07;;;;;;;15.65;100.00;100229.78;5319287;28;20549;-65
2023/08/06 04:27:00;;;;;;;7.65;4.60;;;;;;;15.71;100.00;100229.13;5311830;28;20595;-65
2023/08/06 04:29:31;;;;;;;8.98;5.00;;;;;;;15.67;100.00;100231.31;5315427;28;20047;-65
2023/08/06 04:32:05;;;;;;;7.38;4.47;;;;;;;15.85;100.00;100228.47;5307769;28;20054;-65
2023/08/06 04:34:37;;;;;;;8.23;5.60;;;;;;;15.61;100.00;100231.09;5308432;28;20035;-65
2023/08/06 04:37:08;;;;;;;6.85;4.75;;;;;;;15.77;100.00;100231.19;5305343;28;20583;-65
2023/08/06 04:39:40;;;;;;;7.57;5.05;;;;;;;15.69;100.00;100237.34;5320110;27;20028;-65
2023/08/06 04:42:11;;;;;;;8.85;5.28;;;;;;;15.91;100.00;100236.91;5312344;28;20468;-66
2023/08/06 04:44:42;;;;;;;6.82;5.15;;;;;;;16.01;100.00;100240.25;5311311;28;20031;-65
2023/08/06 04:47:13;;;;;;;7.57;5.07;;;;;;;15.92;100.00;100246.69;5309119;28;20024;-65
2023/08/06 04:49:45;;;;;;;9.02;5.60;;;;;;;15.88;100.00;100236.22;5314052;28;20055;-65
2023/08/06 04:52:16;;;;;;;6.72;4.78;;;;;;;15.83;100.00;100246.63;5312265;28;20126;-65
2023/08/06 04:54:47;;;;;;;8.98;5.28;;;;;;;15.91;100.00;100242.28;5311112;28;20038;-65
2023/08/06 04:57:19;;;;;;;9.30;5.68;;;;;;;15.94;100.00;100240.09;5320262;28;20039;-65
2023/08/06 04:59:51;;;;;;;7.43;5.25;;;;;;;15.94;100.00;100233.91;5314684;28;20042;-65
2023/08/06 05:02:22;;;;;;;9.25;5.70;;;;;;;15.90;100.00;100244.16;5312806;28;20031;-65
2023/08/06 05:04:53;;;;;;;9.07;6.40;;;;;;;15.91;100.00;100242.28;5302651;28;20423;-65
2023/08/06 05:07:25;;;;;;;7.93;5.95;;;;;;;16.02;100.00;100245.47;5320549;28;20031;-65
2023/08/06 05:09:56;;;;;;;8.13;5.60;;;;;;;15.97;100.00;100249.69;5309493;28;20039;-65
2023/08/06 05:12:27;;;;;;;9.32;6.18;;;;;;;15.94;100.00;100245.50;5312060;28;21168;-65
2023/08/06 05:14:59;;;;;;;9.45;6.70;;;;;;;16.05;100.00;100255.94;5310429;28;20039;-65
2023/08/06 05:17:30;;;;;;;9.38;6.43;;;;;;;16.05;100.00;100258.63;5314772;28;20035;-65
2023/08/06 05:20:01;;;;;;;8.75;6.35;;;;;;;16.22;100.00;100270.22;5306801;28;20035;-65
2023/08/06 05:22:33;;;;;;;10.77;6.60;;;;;;;16.14;100.00;100266.69;5309895;28;20027;-66
2023/08/06 05:25:04;;;;;;;9.68;6.32;;;;;;;16.18;100.00;100268.84;5314337;28;20030;-66
2023/08/06 05:27:36;;;;;;;7.45;5.97;;;;;;;16.19;100.00;100273.25;5315179;28;20061;-65
2023/08/06 05:30:08;;;;;;;10.55;6.95;;;;;;;16.19;100.00;100272.41;5307837;28;20455;-66
2023/08/06 05:32:39;;;;;;;9.90;7.32;;;;;;;16.19;100.00;100283.19;5312453;28;20031;-65
2023/08/06 05:35:11;;;;;;;10.07;7.10;;;;;;;16.20;100.00;100271.38;5316065;28;20357;-65
2023/08/06 05:37:42;;;;;;;10.07;6.50;;;;;;;16.19;100.00;100283.19;5305304;28;20100;-66
2023/08/06 05:40:14;;;;;;;9.13;6.82;;;;;;;16.19;100.00;100291.25;5309782;28;20028;-65
2023/08/06 05:42:45;;;;;;;9.80;7.30;;;;;;;16.20;100.00;100285.72;5307642;28;20077;-65
2023/08/06 05:45:17;;;;;;;9.20;7.00;;;;;;;16.24;100.00;100292.44;5315293;28;20027;-65
2023/08/06 05:47:48;;;;;;;10.48;7.43;;;;;;;16.29;100.00;100299.16;5315075;28;20024;-65
2023/08/06 05:50:20;;;;;;;9.25;6.68;;;;;;;16.31;100.00;100303.34;5317067;28;20070;-66
2023/08/06 05:52:51;;;;;;;10.23;7.85;;;;;;;16.35;100.00;100311.94;5320772;27;20031;-65
2023/08/06 05:55:23;;;;;;;7.35;6.28;;;;;;;16.26;100.00;100309.25;5320934;27;20816;-65
2023/08/06 05:57:54;;;;;;;10.93;6.50;;;;;;;16.19;100.00;100310.09;5317042;28;20027;-65
2023/08/06 06:00:26;;;;;;;9.55;6.70;;;;;;;16.20;100.00;100309.94;5308134;28;20061;-66
2023/08/06 06:02:57;;;;;;;8.30;5.63;;;;;;;16.23;100.00;100317.66;5313469;28;20031;-65
2023/08/06 06:05:28;;;;;;;8.25;6.32;;;;;;;16.20;100.00;100320.69;5314473;28;20039;-65
2023/08/06 06:08:00;;;;;;;10.73;5.97;;;;;;;16.20;100.00;100323.41;5318168;28;20095;-65
2023/08/06 06:10:31;;;;;;;8.88;6.18;;;;;;;16.21;100.00;100327.75;5319474;28;20039;-66
2023/08/06 06:13:02;;;;;;;8.45;6.40;;;;;;;16.22;100.00;100331.28;5313545;28;20443;-65
2023/08/06 06:15:34;;;;;;;9.18;6.13;;;;;;;16.25;100.00;100330.97;5314816;28;20509;-65
2023/08/06 06:18:05;;;;;;;10.13;6.30;;;;;;;16.21;100.00;100341.22;5313635;28;20051;-65
2023/08/06 06:20:36;;;;;;;8.77;6.15;;;;;;;16.19;100.00;100342.41;5309516;28;20496;-65
2023/08/06 06:23:08;;;;;;;10.27;6.47;;;;;;;16.22;100.00;100350.97;5309627;28;20024;-65
2023/08/06 06:25:43;;;;;;;9.70;6.32;;;;;;;16.18;100.00;100346.09;5311872;28;20492;-65
2023/08/06 06:28:15;;;;;;;9.15;5.93;;;;;;;16.19;100.00;100355.84;5309261;28;20023;-65
2023/08/06 06:30:46;;;;;;;7.97;5.63;;;;;;;16.18;100.00;100360.38;5312499;28;20031;-65
2023/08/06 06:33:17;;;;;;;10.40;5.90;;;;;;;16.23;100.00;100360.72;5315484;28;20130;-65
2023/08/06 06:35:49;;;;;;;7.50;5.75;;;;;;;16.14;100.00;100364.41;5308572;28;20493;-65
2023/08/06 06:38:20;;;;;;;7.72;6.18;;;;;;;16.17;100.00;100368.63;5314114;28;20040;-65
2023/08/06 06:40:58;;;;;;;8.73;5.80;;;;;;;16.14;100.00;100372.47;5315741;28;20031;-66
2023/08/06 06:43:29;;;;;;;4.07;2.25;;;;;;;15.93;100.00;100385.56;5312034;27;20135;-65
2023/08/06 06:46:01;;;;;;;3.00;1.52;;;;;;;15.74;100.00;100383.97;5307189;28;20024;-65
2023/08/06 06:48:33;;;;;;;2.60;1.05;;;;;;;15.57;100.00;100391.09;5310722;28;20047;-65
2023/08/06 06:51:04;;;;;;;1.85;0.90;;;;;;;15.36;100.00;100395.06;5316100;28;20047;-65
2023/08/06 06:53:35;;;;;;;1.77;0.82;;;;;;;15.16;100.00;100398.94;5311616;28;20077;-65
2023/08/06 06:56:07;;;;;;;2.17;0.95;;;;;;;15.07;100.00;100404.28;5313440;27;20055;-66
2023/08/06 06:58:40;;;;;;;2.00;1.08;;;;;;;14.96;100.00;100400.97;5304709;28;20023;-65
2023/08/06 07:01:12;;;;;;;3.40;1.42;;;;;;;14.90;100.00;100407.84;5316993;28;20472;-64
2023/08/06 07:03:43;;;;;;;3.55;1.80;;;;;;;14.95;100.00;100410.88;5306316;28;20034;-65
2023/08/06 07:06:15;;;;;;;3.33;1.90;;;;;;;14.80;100.00;100409.75;5315561;28;20108;-64
2023/08/06 07:08:47;;;;;;;3.47;1.88;;;;;;;14.77;100.00;100410.09;5315566;28;20506;-65
2023/08/06 07:11:18;;;;;;;3.42;1.90;;;;;;;14.64;100.00;100414.00;5315784;28;20035;-64
2023/08/06 07:13:50;;;;;;;2.90;1.80;;;;;;;14.55;100.00;100425.63;5315232;28;20421;-64
2023/08/06 07:16:21;;;;;;;3.50;2.10;;;;;;;14.51;100.00;100426.94;5313280;28;20035;-64
2023/08/06 07:18:53;;;;;;;3.92;2.75;;;;;;;14.48;100.00;100438.84;5309049;28;20058;-64
2023/08/06 07:21:25;;;;;;;5.30;2.75;;;;;;;14.51;100.00;100438.50;5319614;28;20027;-65
2023/08/06 07:23:57;;;;;;;5.90;3.47;;;;;;;14.46;100.00;100440.81;5307130;28;20032;-65
2023/08/06 07:26:28;;;;;;;5.05;3.42;;;;;;;14.40;100.00;100448.63;5309017;28;20023;-65
2023/08/06 07:28:59;;;;;;;4.75;3.58;;;;;;;14.39;100.00;100457.69;5315897;28;20110;-65
2023/08/06 07:31:31;;;;;;;8.38;4.50;;;;;;;14.48;100.00;100456.78;5315729;28;20024;-65
2023/08/06 07:34:02;;;;;;;5.45;4.10;;;;;;;14.47;100.00;100461.28;5315161;28;20435;-66
2023/08/06 07:36:34;;;;;;;7.45;4.65;;;;;;;14.45;100.00;100475.88;5307875;28;20111;-66
2023/08/06 07:39:06;;;;;;;7.57;5.13;;;;;;;14.46;100.00;100474.88;5312582;28;20031;-67
2023/08/06 07:41:37;;;;;;;8.05;5.38;;;;;;;14.40;100.00;100475.47;5309548;28;20046;-67
2023/08/06 07:44:08;;;;;;;8.43;5.15;;;;;;;14.32;100.00;100478.91;5306984;28;20024;-66
2023/08/06 07:46:40;;;;;;;7.25;5.35;;;;;;;14.34;100.00;100484.97;5306956;28;20044;-67
2023/08/06 07:49:11;;;;;;;9.00;6.10;;;;;;;14.24;100.00;100493.09;5309643;28;20176;-67
2023/08/06 07:51:42;;;;;;;8.05;6.03;;;;;;;14.23;100.00;100488.72;5309594;28;20027;-67
2023/08/06 07:54:14;;;;;;;10.25;6.95;;;;;;;14.25;100.00;100492.09;5313209;28;20028;-67
2023/08/06 07:56:45;;;;;;;11.48;6.82;;;;;;;14.32;100.00;100486.97;5310622;28;20019;-67
2023/08/06 07:59:16;;;;;;;10.80;6.95;;;;;;;14.43;100.00;100499.34;5309906;28;20075;-69
2023/08/06 08:01:48;;;;;;;10.40;7.03;;;;;;;14.28;100.00;100491.78;5313367;28;20047;-69
2023/08/06 08:04:20;;;;;;;11.15;6.57;;;;;;;14.37;100.00;100489.22;5302162;28;20024;-70
2023/08/06 08:06:52;;;;;;;11.40;7.28;;;;;;;14.57;100.00;100498.00;5304807;28;20036;-69
2023/08/06 08:09:23;;;;;;;11.77;7.10;;;;;;;14.54;100.00;100493.75;5317267;28;20058;-69
2023/08/06 08:11:54;;;;;;;13.77;7.45;;;;;;;14.56;100.00;100489.06;5319558;28;20032;-69
2023/08/06 08:14:26;;;;;;;11.75;6.82;;;;;;;14.58;100.00;100494.34;5320405;28;20903;-69
2023/08/06 08:16:57;;;;;;;13.90;6.80;;;;;;;14.69;100.00;100499.50;5318153;28;20118;-69
2023/08/06 08:19:29;;;;;;;11.77;6.90;;;;;;;14.73;100.00;100500.88;5310354;28;20110;-70
2023/08/06 08:22:00;;;;;;;12.23;6.38;;;;;;;14.66;100.00;100508.66;5309482;28;20020;-70
2023/08/06 08:24:32;;;;;;;12.40;5.43;;;;;;;14.68;100.00;100509.34;5318276;28;20234;-70
2023/08/06 08:27:03;;;;;;;7.80;4.63;;;;;;;14.64;100.00;100512.53;5319643;28;20028;-70
2023/08/06 08:29:35;;;;;;;10.85;5.85;;;;;;;14.59;100.00;100502.22;5319799;28;20478;-69
2023/08/06 08:32:06;;;;;;;8.57;4.88;;;;;;;14.58;100.00;100516.66;5315114;28;20027;-69
2023/08/06 08:34:37;;;;;;;11.43;4.95;;;;;;;14.57;100.00;100514.94;5312618;28;20032;-70
2023/08/06 08:37:09;;;;;;;13.20;5.40;;;;;;;14.63;100.00;100517.06;5315968;28;20020;-70
2023/08/06 08:39:40;;;;;;;9.82;5.15;;;;;;;14.60;100.00;100522.72;5314256;28;20490;-70
2023/08/06 08:42:12;;;;;;;10.20;4.22;;;;;;;14.59;100.00;100521.00;5319741;28;20066;-69
2023/08/06 08:44:44;;;;;;;13.15;4.43;;;;;;;14.59;100.00;100533.59;5319417;28;20359;-70
2023/08/06 08:47:16;;;;;;;10.23;4.60;;;;;;;14.47;100.00;100528.41;5312731;28;20039;-69
2023/08/06 08:49:49;;;;;;;11.82;4.97;;;;;;;14.53;100.00;100529.63;5313869;28;20322;-69
2023/08/06 08:52:21;;;;;;;11.30;4.10;;;;;;;14.48;100.00;100537.31;5314303;28;20200;-68
2023/08/06 08:54:53;;;;;;;12.20;4.88;;;;;;;14.44;100.00;100535.91;5318984;28;20068;-68
2023/08/06 08:57:24;;;;;;;9.00;4.30;;;;;;;14.52;100.00;100536.03;5308792;28;20028;-68
2023/08/06 08:59:56;;;;;;;10.75;4.22;;;;;;;14.45;100.00;100540.28;5319240;28;20058;-68
2023/08/06 09:02:31;;;;;;;10.88;4.50;;;;;;;14.43;100.00;100553.84;5319280;28;20035;-67
2023/08/06 09:05:04;;;;;;;14.45;5.28;;;;;;;14.38;100.00;100552.63;5317032;28;20903;-67
2023/08/06 09:07:43;;;;;;;14.77;5.45;;;;;;;14.41;100.00;100565.75;5312912;28;20027;-67
2023/08/06 09:10:17;;;;;;;8.88;5.30;;;;;;;14.37;100.00;100561.69;5312983;28;20118;-67
2023/08/06 09:12:51;;;;;;;13.48;5.55;;;;;;;14.28;100.00;100564.25;5314749;28;20034;-67
2023/08/06 09:15:26;;;;;;;13.55;5.82;;;;;;;14.35;100.00;100569.88;5314760;28;20035;-67
2023/08/06 09:17:57;;;;;;;15.25;5.65;;;;;;;14.38;100.00;100580.31;5314454;28;20390;-67
2023/08/06 09:20:29;;;;;;;14.20;5.40;;;;;;;14.30;100.00;100583.75;5308439;28;20024;-67
2023/08/06 09:23:07;;;;;;;15.95;6.55;;;;;;;14.41;100.00;100590.75;5310709;28;20523;-67
2023/08/06 09:25:40;;;;;;;13.45;6.38;;;;;;;14.43;100.00;100587.91;5316917;27;20051;-67
2023/08/06 09:28:11;;;;;;;13.60;6.45;;;;;;;14.74;100.00;100593.84;5316137;28;20024;-67
2023/08/06 09:30:43;;;;;;;14.43;7.18;;;;;;;14.72;100.00;100597.69;5311751;28;20042;-67
2023/08/06 09:33:18;;;;;;;18.95;8.27;;;;;;;14.56;100.00;100604.53;5310277;28;20020;-67
2023/08/06 09:35:49;;;;;;;19.85;8.23;;;;;;;14.80;100.00;100608.50;5319870;28;20107;-67
2023/08/06 09:38:21;;;;;;;17.25;7.20;;;;;;;14.73;100.00;100612.78;5312536;27;20042;-67
2023/08/06 09:40:52;;;;;;;15.30;7.07;;;;;;;14.55;100.00;100607.34;5309379;28;20474;-68
2023/08/06 09:43:23;;;;;;;18.35;7.55;;;;;;;14.56;100.00;100615.28;5312009;28;20384;-68
2023/08/06 09:45:55;;;;;;;15.95;7.63;;;;;;;14.55;100.00;100615.41;5310639;28;20026;-68
2023/08/06 09:48:26;;;;;;;14.38;5.75;;;;;;;14.53;100.00;100620.91;5311103;28;20027;-69
2023/08/06 09:50:58;;;;;;;13.23;6.25;;;;;;;14.49;100.00;100624.91;5319117;28;20027;-68
2023/08/06 09:53:30;;;;;;;12.95;5.88;;;;;;;14.47;100.00;100625.03;5310353;28;20038;-68
2023/08/06 09:56:02;;;;;;;15.68;5.57;;;;;;;14.48;100.00;100623.22;5313546;28;20016;-68
2023/08/06 09:58:34;;;;;;;16.10;5.72;;;;;;;14.52;100.00;100630.00;5317484;28;20384;-68
2023/08/06 10:01:06;;;;;;;12.88;5.45;;;;;;;14.51;100.00;100628.28;5322663;27;20414;-68
2023/08/06 10:03:39;;;;;;;12.85;5.60;;;;;;;14.51;100.00;100633.66;5315418;27;20084;-68
2023/08/06 10:06:12;;;;;;;14.93;5.78;;;;;;;14.74;100.00;100633.28;5318219;28;20412;-68
2023/08/06 10:08:44;;;;;;;16.85;7.13;;;;;;;14.60;100.00;100634.66;5314128;28;20431;-68
2023/08/06 10:11:17;;;;;;;18.60;6.80;;;;;;;14.67;100.00;100633.91;5316658;28;20024;-68
2023/08/06 10:13:51;;;;;;;12.82;6.03;;;;;;;14.93;100.00;100638.56;5321960;27;20034;-68
2023/08/06 10:16:23;;;;;;;12.32;5.35;;;;;;;14.76;100.00;100632.13;5315686;28;20034;-68
2023/08/06 10:18:55;;;;;;;15.18;5.45;;;;;;;14.84;100.00;100634.94;5315460;28;20024;-68
2023/08/06 10:21:30;;;;;;;10.90;4.40;;;;;;;14.82;100.00;100634.25;5307703;28;20035;-68
2023/08/06 10:24:03;;;;;;;12.05;4.10;;;;;;;14.80;100.00;100638.06;5311572;28;20107;-68
2023/08/06 10:26:34;;;;;;;10.23;5.38;;;;;;;14.83;100.00;100643.16;5308195;27;20084;-68
2023/08/06 10:29:37;;;;;;;10.88;5.00;;;;;;;14.93;100.00;100643.91;5306940;27;20035;-68
2023/08/06 10:32:08;;;;;;;14.27;5.35;;;;;;;14.68;100.00;100642.78;5316227;28;20118;-68
2023/08/06 10:35:00;;;;;;;13.75;5.85;;;;;;;14.83;100.00;100646.66;5305243;28;20032;-68
2023/08/06 10:37:36;;;;;;;12.82;6.15;;;;;;;15.00;100.00;100653.06;5306225;28;20478;-68
2023/08/06 10:40:08;;;;;;;15.13;6.70;;;;;;;15.06;100.00;100647.09;5320030;27;20022;-68
2023/08/06 10:42:40;;;;;;;14.40;6.53;;;;;;;15.08;100.00;100655.00;5317721;28;20389;-68
2023/08/06 10:45:17;;;;;;;16.15;6.72;;;;;;;15.16;100.00;100649.72;5313727;28;20377;-68
2023/08/06 10:47:48;;;;;;;12.15;5.65;;;;;;;15.13;100.00;100650.03;5314707;28;21080;-68
2023/08/06 10:50:20;;;;;;;12.23;5.70;;;;;;;15.22;100.00;100651.78;5311384;28;20031;-68
2023/08/06 10:52:52;;;;;;;12.25;5.85;;;;;;;15.29;100.00;100652.03;5310138;28;20028;-68
2023/08/06 10:55:26;;;;;;;18.13;6.43;;;;;;;15.25;100.00;100659.56;5308786;28;20060;-68
2023/08/06 10:57:58;;;;;;;13.77;6.53;;;;;;;15.32;100.00;100662.47;5311866;28;20038;-68
2023/08/06 11:00:29;;;;;;;12.65;5.65;;;;;;;15.32;100.00;100658.94;5313982;28;20031;-68
2023/08/06 11:03:00;;;;;;;12.88;5.97;;;;;;;15.35;100.00;100669.41;5315950;28;20072;-69
2023/08/06 11:05:32;;;;;;;11.65;5.38;;;;;;;15.33;100.00;100672.22;5315676;28;20035;-68
2023/08/06 11:08:04;;;;;;;15.20;6.32;;;;;;;15.35;100.00;100664.84;5315715;28;20639;-68
2023/08/06 11:10:35;;;;;;;11.45;5.80;;;;;;;15.34;100.00;100668.56;5316959;28;20027;-68
2023/08/06 11:13:07;;;;;;;12.68;5.43;;;;;;;15.40;100.00;100673.31;5311428;28;20049;-69
2023/08/06 11:15:38;;;;;;;12.07;6.00;;;;;;;15.45;100.00;100670.16;5311354;28;20509;-68
2023/08/06 11:18:10;;;;;;;14.82;6.15;;;;;;;15.46;100.00;100669.19;5312163;28;20023;-68
2023/08/06 11:20:41;;;;;;;12.00;5.20;;;;;;;15.42;100.00;100671.31;5307501;28;20362;-68
2023/08/06 11:23:13;;;;;;;17.15;6.78;;;;;;;15.49;100.00;100677.78;5307810;28;20107;-68
2023/08/06 11:25:45;;;;;;;14.93;6.90;;;;;;;15.47;100.00;100671.72;5315410;28;20012;-69
2023/08/06 11:28:21;;;;;;;16.50;6.82;;;;;;;15.55;100.00;100678.16;5315088;28;20037;-68
2023/08/06 11:30:55;;;;;;;13.18;5.97;;;;;;;15.53;100.00;100672.06;5306038;28;20347;-68
2023/08/06 11:33:27;;;;;;;12.75;5.78;;;;;;;15.67;100.00;100671.56;5313630;28;20465;-68
2023/08/06 11:35:59;;;;;;;13.48;5.50;;;;;;;15.68;100.00;100675.91;5309826;28;20023;-68